sensor_id;sensor_type;location;lat;lon;timestamp;temperature;humidity
8114;DHT22;4099;52.684;9.918;2024-02-23T00:00:32;9.60;99.90
8114;DHT22;4099;52.684;9.918;2024-02-23T00:05:37;9.50;99.90
8114;DHT22;4099;52.684;9.918;2024-02-23T00:10:41;9.50;99.90
8114;DHT22;4099;52.684;9.918;2024-02-23T00:15:44;9.40;99.90
8114;DHT22;4099;52.684;9.918;2024-02-23T00:20:46;9.50;99.90
8114;DHT22;4099;52.684;9.918;2024-02-23T00:25:55;9.40;99.90
8114;DHT22;4099;52.684;9.918;2024-02-23T00:31:02;9.30;99.90
8114;DHT22;4099;52.684;9.918;2024-02-23T00:36:04;9.20;99.90
8114;DHT22;4099;52.684;9.918;2024-02-23T00:41:06;9.20;99.90
8114;DHT22;4099;52.684;9.918;2024-02-23T00:46:12;9.20;99.60
8114;DHT22;4099;52.684;9.918;2024-02-23T00:51:16;9.10;99.90
8114;DHT22;4099;52.684;9.918;2024-02-23T00:56:20;9.20;99.90
8114;DHT22;4099;52.684;9.918;2024-02-23T01:01:23;9.20;99.20
8114;DHT22;4099;52.684;9.918;2024-02-23T01:06:27;9.10;99.90
8114;DHT22;4099;52.684;9.918;2024-02-23T01:11:29;9.00;99.90
8114;DHT22;4099;52.684;9.918;2024-02-23T01:16:32;9.00;99.90
8114;DHT22;4099;52.684;9.918;2024-02-23T01:21:36;8.90;99.90
8114;DHT22;4099;52.684;9.918;2024-02-23T01:26:41;8.80;99.90
8114;DHT22;4099;52.684;9.918;2024-02-23T01:31:46;8.90;99.90
8114;DHT22;4099;52.684;9.918;2024-02-23T01:36:48;8.80;99.90
8114;DHT22;4099;52.684;9.918;2024-02-23T01:41:52;8.30;99.90
8114;DHT22;4099;52.684;9.918;2024-02-23T01:46:59;8.10;99.90
8114;DHT22;4099;52.684;9.918;2024-02-23T01:52:04;8.00;99.90
8114;DHT22;4099;52.684;9.918;2024-02-23T01:57:08;7.70;99.90
8114;DHT22;4099;52.684;9.918;2024-02-23T02:02:12;6.60;99.90
8114;DHT22;4099;52.684;9.918;2024-02-23T02:07:21;6.00;99.90
8114;DHT22;4099;52.684;9.918;2024-02-23T02:12:27;5.80;99.90
8114;DHT22;4099;52.684;9.918;2024-02-23T02:17:32;5.80;99.90
8114;DHT22;4099;52.684;9.918;2024-02-23T02:22:37;5.70;99.90
8114;DHT22;4099;52.684;9.918;2024-02-23T02:27:39;5.70;99.90
8114;DHT22;4099;52.684;9.918;2024-02-23T02:32:42;5.60;99.90
8114;DHT22;4099;52.684;9.918;2024-02-23T02:37:44;5.50;99.90
8114;DHT22;4099;52.684;9.918;2024-02-23T02:42:46;5.40;99.90
8114;DHT22;4099;52.684;9.918;2024-02-23T02:47:49;5.40;99.90
8114;DHT22;4099;52.684;9.918;2024-02-23T02:52:54;5.40;99.90
8114;DHT22;4099;52.684;9.918;2024-02-23T02:57:59;5.40;99.90
8114;DHT22;4099;52.684;9.918;2024-02-23T03:03:04;5.40;99.90
8114;DHT22;4099;52.684;9.918;2024-02-23T03:08:07;5.30;99.90
8114;DHT22;4099;52.684;9.918;2024-02-23T03:13:14;5.30;99.90
8114;DHT22;4099;52.684;9.918;2024-02-23T03:18:22;5.30;99.90
8114;DHT22;4099;52.684;9.918;2024-02-23T03:23:25;5.30;99.90
8114;DHT22;4099;52.684;9.918;2024-02-23T03:28:27;5.20;99.90
8114;DHT22;4099;52.684;9.918;2024-02-23T03:33:33;5.20;99.90
8114;DHT22;4099;52.684;9.918;2024-02-23T03:38:35;5.20;99.90
8114;DHT22;4099;52.684;9.918;2024-02-23T03:43:39;5.30;99.90
8114;DHT22;4099;52.684;9.918;2024-02-23T03:48:45;5.10;99.90
8114;DHT22;4099;52.684;9.918;2024-02-23T03:53:50;5.10;99.90
8114;DHT22;4099;52.684;9.918;2024-02-23T03:58:52;5.10;99.90
8114;DHT22;4099;52.684;9.918;2024-02-23T04:03:55;5.10;99.90
8114;DHT22;4099;52.684;9.918;2024-02-23T04:08:58;5.10;99.90
8114;DHT22;4099;52.684;9.918;2024-02-23T04:14:06;5.30;99.90
8114;DHT22;4099;52.684;9.918;2024-02-23T04:19:12;5.40;99.90
8114;DHT22;4099;52.684;9.918;2024-02-23T04:24:13;5.40;99.90
8114;DHT22;4099;52.684;9.918;2024-02-23T04:29:15;5.50;99.90
8114;DHT22;4099;52.684;9.918;2024-02-23T04:34:18;5.60;99.90
8114;DHT22;4099;52.684;9.918;2024-02-23T04:39:23;5.60;99.90
8114;DHT22;4099;52.684;9.918;2024-02-23T04:44:25;5.60;99.90
8114;DHT22;4099;52.684;9.918;2024-02-23T04:49:28;5.60;99.90
8114;DHT22;4099;52.684;9.918;2024-02-23T04:54:31;5.60;99.90
8114;DHT22;4099;52.684;9.918;2024-02-23T04:59:33;5.60;99.90
8114;DHT22;4099;52.684;9.918;2024-02-23T05:04:39;5.50;99.90
8114;DHT22;4099;52.684;9.918;2024-02-23T05:09:41;5.60;99.90
8114;DHT22;4099;52.684;9.918;2024-02-23T05:14:43;5.70;99.90
8114;DHT22;4099;52.684;9.918;2024-02-23T05:19:46;5.70;99.90
8114;DHT22;4099;52.684;9.918;2024-02-23T05:24:48;5.70;99.90
8114;DHT22;4099;52.684;9.918;2024-02-23T05:29:53;5.80;99.90
8114;DHT22;4099;52.684;9.918;2024-02-23T05:34:56;5.80;99.90
8114;DHT22;4099;52.684;9.918;2024-02-23T05:40:01;5.80;99.90
8114;DHT22;4099;52.684;9.918;2024-02-23T05:45:10;5.80;99.90
8114;DHT22;4099;52.684;9.918;2024-02-23T05:50:15;5.80;99.90
8114;DHT22;4099;52.684;9.918;2024-02-23T05:55:17;5.80;99.90
8114;DHT22;4099;52.684;9.918;2024-02-23T06:00:21;5.90;99.90
8114;DHT22;4099;52.684;9.918;2024-02-23T06:05:27;5.90;99.90
8114;DHT22;4099;52.684;9.918;2024-02-23T06:10:28;5.90;99.90
8114;DHT22;4099;52.684;9.918;2024-02-23T06:15:33;5.90;99.90
8114;DHT22;4099;52.684;9.918;2024-02-23T06:20:36;5.90;99.90
8114;DHT22;4099;52.684;9.918;2024-02-23T06:25:38;5.90;99.90
8114;DHT22;4099;52.684;9.918;2024-02-23T06:30:39;6.00;99.90
8114;DHT22;4099;52.684;9.918;2024-02-23T06:35:45;6.00;99.90
8114;DHT22;4099;52.684;9.918;2024-02-23T06:40:47;6.00;99.90
8114;DHT22;4099;52.684;9.918;2024-02-23T06:45:56;6.10;99.90
8114;DHT22;4099;52.684;9.918;2024-02-23T06:50:59;6.10;99.90
8114;DHT22;4099;52.684;9.918;2024-02-23T06:56:02;6.10;99.90
8114;DHT22;4099;52.684;9.918;2024-02-23T07:01:04;6.00;99.90
8114;DHT22;4099;52.684;9.918;2024-02-23T07:06:10;5.90;99.90
8114;DHT22;4099;52.684;9.918;2024-02-23T07:11:12;5.90;99.90
8114;DHT22;4099;52.684;9.918;2024-02-23T07:16:17;5.90;99.90
8114;DHT22;4099;52.684;9.918;2024-02-23T07:21:23;6.00;99.90
8114;DHT22;4099;52.684;9.918;2024-02-23T07:26:26;6.00;99.90
8114;DHT22;4099;52.684;9.918;2024-02-23T07:31:31;6.10;99.90
8114;DHT22;4099;52.684;9.918;2024-02-23T07:36:34;6.20;99.90
8114;DHT22;4099;52.684;9.918;2024-02-23T07:41:36;6.30;99.90
8114;DHT22;4099;52.684;9.918;2024-02-23T07:46:39;6.30;99.90
8114;DHT22;4099;52.684;9.918;2024-02-23T07:51:43;6.40;99.90
8114;DHT22;4099;52.684;9.918;2024-02-23T07:56:45;6.40;99.90
8114;DHT22;4099;52.684;9.918;2024-02-23T08:01:47;6.40;99.90
8114;DHT22;4099;52.684;9.918;2024-02-23T08:06:50;6.60;99.90
8114;DHT22;4099;52.684;9.918;2024-02-23T08:11:52;6.70;99.90
8114;DHT22;4099;52.684;9.918;2024-02-23T08:16:54;6.80;99.90
8114;DHT22;4099;52.684;9.918;2024-02-23T08:21:57;6.80;99.90
8114;DHT22;4099;52.684;9.918;2024-02-23T08:26:59;6.80;99.90
8114;DHT22;4099;52.684;9.918;2024-02-23T08:32:00;6.70;99.90
8114;DHT22;4099;52.684;9.918;2024-02-23T08:37:04;6.70;99.90
8114;DHT22;4099;52.684;9.918;2024-02-23T08:42:06;6.80;99.90
8114;DHT22;4099;52.684;9.918;2024-02-23T08:47:11;6.90;99.90
8114;DHT22;4099;52.684;9.918;2024-02-23T08:52:17;7.20;99.90
8114;DHT22;4099;52.684;9.918;2024-02-23T08:57:20;7.40;99.90
8114;DHT22;4099;52.684;9.918;2024-02-23T09:02:26;7.50;99.90
8114;DHT22;4099;52.684;9.918;2024-02-23T09:07:29;7.60;99.90
8114;DHT22;4099;52.684;9.918;2024-02-23T09:12:31;7.70;99.90
8114;DHT22;4099;52.684;9.918;2024-02-23T09:17:33;7.80;99.90
8114;DHT22;4099;52.684;9.918;2024-02-23T09:22:36;7.80;99.90
8114;DHT22;4099;52.684;9.918;2024-02-23T09:27:38;8.10;99.90
8114;DHT22;4099;52.684;9.918;2024-02-23T09:32:43;8.20;99.90
8114;DHT22;4099;52.684;9.918;2024-02-23T09:37:47;8.20;99.90
8114;DHT22;4099;52.684;9.918;2024-02-23T09:42:52;8.00;99.90
8114;DHT22;4099;52.684;9.918;2024-02-23T09:47:59;8.10;99.90
8114;DHT22;4099;52.684;9.918;2024-02-23T09:53:06;8.30;99.90
8114;DHT22;4099;52.684;9.918;2024-02-23T09:58:14;8.60;99.40
8114;DHT22;4099;52.684;9.918;2024-02-23T10:03:17;8.80;99.90
8114;DHT22;4099;52.684;9.918;2024-02-23T10:08:20;8.80;99.30
8114;DHT22;4099;52.684;9.918;2024-02-23T10:13:25;8.70;99.30
8114;DHT22;4099;52.684;9.918;2024-02-23T10:18:30;8.90;99.10
8114;DHT22;4099;52.684;9.918;2024-02-23T10:23:33;8.80;99.00
8114;DHT22;4099;52.684;9.918;2024-02-23T10:28:37;8.60;98.80
8114;DHT22;4099;52.684;9.918;2024-02-23T10:33:42;8.30;99.20
8114;DHT22;4099;52.684;9.918;2024-02-23T10:38:47;8.20;98.70
8114;DHT22;4099;52.684;9.918;2024-02-23T10:43:55;8.20;98.80
8114;DHT22;4099;52.684;9.918;2024-02-23T10:49:01;8.30;99.30
8114;DHT22;4099;52.684;9.918;2024-02-23T10:54:04;8.30;98.70
8114;DHT22;4099;52.684;9.918;2024-02-23T10:59:08;8.20;99.00
8114;DHT22;4099;52.684;9.918;2024-02-23T11:04:13;8.30;99.50
8114;DHT22;4099;52.684;9.918;2024-02-23T11:09:16;8.50;99.00
8114;DHT22;4099;52.684;9.918;2024-02-23T11:14:32;8.70;99.40
8114;DHT22;4099;52.684;9.918;2024-02-23T11:19:34;9.00;99.90
8114;DHT22;4099;52.684;9.918;2024-02-23T11:24:43;9.00;98.90
8114;DHT22;4099;52.684;9.918;2024-02-23T11:29:45;8.90;98.30
8114;DHT22;4099;52.684;9.918;2024-02-23T11:34:57;9.00;98.30
8114;DHT22;4099;52.684;9.918;2024-02-23T11:40:00;8.90;97.80
8114;DHT22;4099;52.684;9.918;2024-02-23T11:45:04;9.10;98.60
8114;DHT22;4099;52.684;9.918;2024-02-23T11:50:08;9.10;98.30
8114;DHT22;4099;52.684;9.918;2024-02-23T11:55:18;9.40;97.70
8114;DHT22;4099;52.684;9.918;2024-02-23T12:00:23;9.90;98.60
8114;DHT22;4099;52.684;9.918;2024-02-23T12:05:25;10.20;96.20
8114;DHT22;4099;52.684;9.918;2024-02-23T12:10:29;10.30;95.90
8114;DHT22;4099;52.684;9.918;2024-02-23T12:15:31;10.30;96.60
8114;DHT22;4099;52.684;9.918;2024-02-23T12:20:35;10.30;95.50
8114;DHT22;4099;52.684;9.918;2024-02-23T12:25:52;10.40;96.00
8114;DHT22;4099;52.684;9.918;2024-02-23T12:31:02;10.00;95.40
8114;DHT22;4099;52.684;9.918;2024-02-23T12:36:05;10.20;95.80
8114;DHT22;4099;52.684;9.918;2024-02-23T12:41:16;10.20;95.40
8114;DHT22;4099;52.684;9.918;2024-02-23T12:46:18;10.70;96.10
8114;DHT22;4099;52.684;9.918;2024-02-23T12:51:25;11.80;94.00
8114;DHT22;4099;52.684;9.918;2024-02-23T12:56:28;12.20;92.70
8114;DHT22;4099;52.684;9.918;2024-02-23T13:01:33;11.20;93.50
8114;DHT22;4099;52.684;9.918;2024-02-23T13:06:40;10.80;93.60
8114;DHT22;4099;52.684;9.918;2024-02-23T13:11:47;10.90;94.60
8114;DHT22;4099;52.684;9.918;2024-02-23T13:16:49;11.20;93.30
8114;DHT22;4099;52.684;9.918;2024-02-23T13:21:54;11.00;92.90
8114;DHT22;4099;52.684;9.918;2024-02-23T13:26:58;10.30;93.90
8114;DHT22;4099;52.684;9.918;2024-02-23T13:31:59;10.20;94.20
8114;DHT22;4099;52.684;9.918;2024-02-23T13:37:05;10.20;94.00
8114;DHT22;4099;52.684;9.918;2024-02-23T13:42:09;10.30;94.90
8114;DHT22;4099;52.684;9.918;2024-02-23T13:47:11;10.50;94.70
8114;DHT22;4099;52.684;9.918;2024-02-23T13:52:15;10.50;94.80
8114;DHT22;4099;52.684;9.918;2024-02-23T13:57:20;10.30;94.40
8114;DHT22;4099;52.684;9.918;2024-02-23T14:02:25;10.20;94.80
8114;DHT22;4099;52.684;9.918;2024-02-23T14:07:27;9.90;95.30
8114;DHT22;4099;52.684;9.918;2024-02-23T14:12:34;9.80;95.20
8114;DHT22;4099;52.684;9.918;2024-02-23T14:17:36;9.60;95.50
8114;DHT22;4099;52.684;9.918;2024-02-23T14:22:40;9.50;96.00
8114;DHT22;4099;52.684;9.918;2024-02-23T14:27:46;9.30;95.80
8114;DHT22;4099;52.684;9.918;2024-02-23T14:32:48;9.40;96.30
8114;DHT22;4099;52.684;9.918;2024-02-23T14:37:50;9.40;95.60
8114;DHT22;4099;52.684;9.918;2024-02-23T14:42:54;9.40;96.40
8114;DHT22;4099;52.684;9.918;2024-02-23T14:47:56;9.50;96.10
8114;DHT22;4099;52.684;9.918;2024-02-23T14:52:58;9.40;96.20
8114;DHT22;4099;52.684;9.918;2024-02-23T14:58:02;9.40;96.10
8114;DHT22;4099;52.684;9.918;2024-02-23T15:03:04;9.80;96.40
8114;DHT22;4099;52.684;9.918;2024-02-23T15:08:07;9.90;96.20
8114;DHT22;4099;52.684;9.918;2024-02-23T15:13:10;10.10;95.10
8114;DHT22;4099;52.684;9.918;2024-02-23T15:18:12;10.00;95.70
8114;DHT22;4099;52.684;9.918;2024-02-23T15:23:14;10.00;95.50
8114;DHT22;4099;52.684;9.918;2024-02-23T15:28:17;10.10;95.40
8114;DHT22;4099;52.684;9.918;2024-02-23T15:33:26;9.80;96.00
8114;DHT22;4099;52.684;9.918;2024-02-23T15:38:28;9.60;96.70
8114;DHT22;4099;52.684;9.918;2024-02-23T15:43:31;9.50;97.00
8114;DHT22;4099;52.684;9.918;2024-02-23T15:48:33;9.50;96.90
8114;DHT22;4099;52.684;9.918;2024-02-23T15:53:35;9.40;96.90
8114;DHT22;4099;52.684;9.918;2024-02-23T15:58:38;9.30;97.10
8114;DHT22;4099;52.684;9.918;2024-02-23T16:03:40;9.20;96.90
8114;DHT22;4099;52.684;9.918;2024-02-23T16:08:43;9.10;97.10
8114;DHT22;4099;52.684;9.918;2024-02-23T16:13:50;9.10;97.20
8114;DHT22;4099;52.684;9.918;2024-02-23T16:18:52;9.00;97.50
8114;DHT22;4099;52.684;9.918;2024-02-23T16:23:53;8.90;97.70
8114;DHT22;4099;52.684;9.918;2024-02-23T16:28:58;8.90;98.20
8114;DHT22;4099;52.684;9.918;2024-02-23T16:34:03;8.90;97.90
8114;DHT22;4099;52.684;9.918;2024-02-23T16:39:05;8.90;98.10
8114;DHT22;4099;52.684;9.918;2024-02-23T16:44:09;8.80;98.00
8114;DHT22;4099;52.684;9.918;2024-02-23T16:49:13;8.80;98.20
8114;DHT22;4099;52.684;9.918;2024-02-23T16:54:15;8.70;98.10
8114;DHT22;4099;52.684;9.918;2024-02-23T16:59:21;8.60;98.00
8114;DHT22;4099;52.684;9.918;2024-02-23T17:04:23;8.70;97.90
8114;DHT22;4099;52.684;9.918;2024-02-23T17:09:27;8.60;98.10
8114;DHT22;4099;52.684;9.918;2024-02-23T17:14:31;8.60;98.10
8114;DHT22;4099;52.684;9.918;2024-02-23T17:19:36;8.60;97.90
8114;DHT22;4099;52.684;9.918;2024-02-23T17:24:39;8.60;98.00
8114;DHT22;4099;52.684;9.918;2024-02-23T17:29:47;8.50;98.30
8114;DHT22;4099;52.684;9.918;2024-02-23T17:34:49;8.50;98.40
8114;DHT22;4099;52.684;9.918;2024-02-23T17:39:53;8.50;98.90
8114;DHT22;4099;52.684;9.918;2024-02-23T17:44:59;8.30;98.80
8114;DHT22;4099;52.684;9.918;2024-02-23T17:50:08;8.40;99.00
8114;DHT22;4099;52.684;9.918;2024-02-23T17:55:13;8.30;99.10
8114;DHT22;4099;52.684;9.918;2024-02-23T18:00:25;8.30;99.20
8114;DHT22;4099;52.684;9.918;2024-02-23T18:05:26;8.30;99.20
8114;DHT22;4099;52.684;9.918;2024-02-23T18:10:30;8.30;99.20
8114;DHT22;4099;52.684;9.918;2024-02-23T18:15:34;8.40;99.30
8114;DHT22;4099;52.684;9.918;2024-02-23T18:20:38;8.30;99.30
8114;DHT22;4099;52.684;9.918;2024-02-23T18:25:40;8.30;99.50
8114;DHT22;4099;52.684;9.918;2024-02-23T18:30:43;8.20;99.60
8114;DHT22;4099;52.684;9.918;2024-02-23T18:35:47;8.20;99.60
8114;DHT22;4099;52.684;9.918;2024-02-23T18:40:49;8.20;99.40
8114;DHT22;4099;52.684;9.918;2024-02-23T18:45:57;8.20;99.40
8114;DHT22;4099;52.684;9.918;2024-02-23T18:51:00;8.20;99.50
8114;DHT22;4099;52.684;9.918;2024-02-23T18:56:02;8.20;99.60
8114;DHT22;4099;52.684;9.918;2024-02-23T19:01:07;8.10;99.40
8114;DHT22;4099;52.684;9.918;2024-02-23T19:06:12;8.10;99.50
8114;DHT22;4099;52.684;9.918;2024-02-23T19:11:13;8.10;99.40
8114;DHT22;4099;52.684;9.918;2024-02-23T19:16:17;8.00;99.60
8114;DHT22;4099;52.684;9.918;2024-02-23T19:21:21;8.00;99.50
8114;DHT22;4099;52.684;9.918;2024-02-23T19:26:23;7.90;99.50
8114;DHT22;4099;52.684;9.918;2024-02-23T19:31:26;7.90;99.70
8114;DHT22;4099;52.684;9.918;2024-02-23T19:36:31;7.70;99.90
8114;DHT22;4099;52.684;9.918;2024-02-23T19:41:41;7.60;99.90
8114;DHT22;4099;52.684;9.918;2024-02-23T19:46:47;7.50;99.90
8114;DHT22;4099;52.684;9.918;2024-02-23T19:51:49;7.50;99.90
8114;DHT22;4099;52.684;9.918;2024-02-23T19:56:53;7.30;99.90
8114;DHT22;4099;52.684;9.918;2024-02-23T20:01:56;7.20;99.90
8114;DHT22;4099;52.684;9.918;2024-02-23T20:06:59;7.10;99.90
8114;DHT22;4099;52.684;9.918;2024-02-23T20:12:03;7.00;99.90
8114;DHT22;4099;52.684;9.918;2024-02-23T20:17:07;6.80;99.90
8114;DHT22;4099;52.684;9.918;2024-02-23T20:22:14;6.60;99.90
8114;DHT22;4099;52.684;9.918;2024-02-23T20:27:19;6.60;99.90
8114;DHT22;4099;52.684;9.918;2024-02-23T20:32:22;6.60;99.90
8114;DHT22;4099;52.684;9.918;2024-02-23T20:37:24;6.70;99.90
8114;DHT22;4099;52.684;9.918;2024-02-23T20:42:26;6.80;99.90
8114;DHT22;4099;52.684;9.918;2024-02-23T20:47:29;6.90;99.90
8114;DHT22;4099;52.684;9.918;2024-02-23T20:52:31;6.90;99.90
8114;DHT22;4099;52.684;9.918;2024-02-23T20:57:33;7.00;99.90
8114;DHT22;4099;52.684;9.918;2024-02-23T21:02:36;7.10;99.90
8114;DHT22;4099;52.684;9.918;2024-02-23T21:07:42;7.10;99.90
8114;DHT22;4099;52.684;9.918;2024-02-23T21:12:48;7.20;99.90
8114;DHT22;4099;52.684;9.918;2024-02-23T21:17:51;7.20;99.90
8114;DHT22;4099;52.684;9.918;2024-02-23T21:22:53;7.20;99.90
8114;DHT22;4099;52.684;9.918;2024-02-23T21:27:56;7.20;99.90
8114;DHT22;4099;52.684;9.918;2024-02-23T21:32:59;7.20;99.90
8114;DHT22;4099;52.684;9.918;2024-02-23T21:38:01;7.10;99.90
8114;DHT22;4099;52.684;9.918;2024-02-23T21:43:03;7.10;99.90
8114;DHT22;4099;52.684;9.918;2024-02-23T21:48:07;7.00;99.90
8114;DHT22;4099;52.684;9.918;2024-02-23T21:53:08;6.80;99.90
8114;DHT22;4099;52.684;9.918;2024-02-23T21:58:13;6.60;99.90
8114;DHT22;4099;52.684;9.918;2024-02-23T22:03:16;6.30;99.90
8114;DHT22;4099;52.684;9.918;2024-02-23T22:08:19;6.20;99.90
8114;DHT22;4099;52.684;9.918;2024-02-23T22:13:22;6.00;99.90
8114;DHT22;4099;52.684;9.918;2024-02-23T22:18:27;5.90;99.90
8114;DHT22;4099;52.684;9.918;2024-02-23T22:23:34;5.60;99.90
8114;DHT22;4099;52.684;9.918;2024-02-23T22:28:36;5.50;99.90
8114;DHT22;4099;52.684;9.918;2024-02-23T22:33:46;5.30;99.90
8114;DHT22;4099;52.684;9.918;2024-02-23T22:38:48;5.30;99.90
8114;DHT22;4099;52.684;9.918;2024-02-23T22:43:52;5.10;99.90
8114;DHT22;4099;52.684;9.918;2024-02-23T22:48:55;5.00;99.90
8114;DHT22;4099;52.684;9.918;2024-02-23T22:53:57;4.90;99.90
8114;DHT22;4099;52.684;9.918;2024-02-23T22:58:59;4.90;99.90
8114;DHT22;4099;52.684;9.918;2024-02-23T23:04:10;4.40;99.90
8114;DHT22;4099;52.684;9.918;2024-02-23T23:09:12;4.40;99.90
8114;DHT22;4099;52.684;9.918;2024-02-23T23:14:14;4.50;99.90
8114;DHT22;4099;52.684;9.918;2024-02-23T23:19:17;4.60;99.90
8114;DHT22;4099;52.684;9.918;2024-02-23T23:24:25;4.50;99.90
8114;DHT22;4099;52.684;9.918;2024-02-23T23:29:27;4.50;99.90
8114;DHT22;4099;52.684;9.918;2024-02-23T23:34:30;4.40;99.90
8114;DHT22;4099;52.684;9.918;2024-02-23T23:39:32;4.40;99.90
8114;DHT22;4099;52.684;9.918;2024-02-23T23:44:36;4.10;99.90
8114;DHT22;4099;52.684;9.918;2024-02-23T23:49:42;4.00;99.90
8114;DHT22;4099;52.684;9.918;2024-02-23T23:54:46;4.10;99.90
8114;DHT22;4099;52.684;9.918;2024-02-23T23:59:48;4.10;99.90
